sensor_id;sensor_type;location;lat;lon;timestamp;P1;durP1;ratioP1;P2;durP2;ratioP2
3249;SDS011;1637;42.020;23.992;2023-02-22T00:00:18;64.43;;;27.00;;
3249;SDS011;1637;42.020;23.992;2023-02-22T00:02:48;61.20;;;26.60;;
3249;SDS011;1637;42.020;23.992;2023-02-22T00:05:15;57.17;;;23.07;;
3249;SDS011;1637;42.020;23.992;2023-02-22T00:07:44;62.10;;;25.20;;
3249;SDS011;1637;42.020;23.992;2023-02-22T00:10:12;63.13;;;23.87;;
3249;SDS011;1637;42.020;23.992;2023-02-22T00:12:46;53.43;;;23.23;;
3249;SDS011;1637;42.020;23.992;2023-02-22T00:15:14;53.63;;;20.47;;
3249;SDS011;1637;42.020;23.992;2023-02-22T00:17:42;54.13;;;21.27;;
3249;SDS011;1637;42.020;23.992;2023-02-22T00:20:09;48.60;;;19.80;;
3249;SDS011;1637;42.020;23.992;2023-02-22T00:22:38;49.30;;;22.10;;
3249;SDS011;1637;42.020;23.992;2023-02-22T00:25:06;55.60;;;23.10;;
3249;SDS011;1637;42.020;23.992;2023-02-22T00:27:34;48.27;;;22.97;;
3249;SDS011;1637;42.020;23.992;2023-02-22T00:30:02;49.63;;;22.80;;
3249;SDS011;1637;42.020;23.992;2023-02-22T00:32:29;47.37;;;20.20;;
3249;SDS011;1637;42.020;23.992;2023-02-22T00:34:56;35.80;;;15.60;;
3249;SDS011;1637;42.020;23.992;2023-02-22T00:37:23;35.57;;;18.43;;
3249;SDS011;1637;42.020;23.992;2023-02-22T00:39:50;33.07;;;16.17;;
3249;SDS011;1637;42.020;23.992;2023-02-22T00:42:17;32.60;;;13.53;;
3249;SDS011;1637;42.020;23.992;2023-02-22T00:44:44;49.10;;;22.97;;
3249;SDS011;1637;42.020;23.992;2023-02-22T00:47:12;44.97;;;20.47;;
3249;SDS011;1637;42.020;23.992;2023-02-22T00:49:39;51.70;;;21.50;;
3249;SDS011;1637;42.020;23.992;2023-02-22T00:52:06;48.73;;;21.47;;
3249;SDS011;1637;42.020;23.992;2023-02-22T00:54:33;42.83;;;20.90;;
3249;SDS011;1637;42.020;23.992;2023-02-22T00:57:00;49.70;;;23.40;;
3249;SDS011;1637;42.020;23.992;2023-02-22T00:59:27;53.00;;;24.47;;
3249;SDS011;1637;42.020;23.992;2023-02-22T01:01:55;45.50;;;22.63;;
3249;SDS011;1637;42.020;23.992;2023-02-22T01:04:24;32.00;;;17.57;;
3249;SDS011;1637;42.020;23.992;2023-02-22T01:06:51;38.50;;;18.60;;
3249;SDS011;1637;42.020;23.992;2023-02-22T01:09:18;56.50;;;23.93;;
3249;SDS011;1637;42.020;23.992;2023-02-22T01:11:45;69.93;;;26.00;;
3249;SDS011;1637;42.020;23.992;2023-02-22T01:14:12;51.43;;;24.17;;
3249;SDS011;1637;42.020;23.992;2023-02-22T01:16:39;60.17;;;25.53;;
3249;SDS011;1637;42.020;23.992;2023-02-22T01:19:06;59.57;;;24.47;;
3249;SDS011;1637;42.020;23.992;2023-02-22T01:21:34;63.77;;;26.77;;
3249;SDS011;1637;42.020;23.992;2023-02-22T01:24:01;44.63;;;19.90;;
3249;SDS011;1637;42.020;23.992;2023-02-22T01:26:28;38.67;;;17.00;;
3249;SDS011;1637;42.020;23.992;2023-02-22T01:28:55;35.57;;;13.57;;
3249;SDS011;1637;42.020;23.992;2023-02-22T01:31:22;27.63;;;13.73;;
3249;SDS011;1637;42.020;23.992;2023-02-22T01:33:49;50.43;;;21.27;;
3249;SDS011;1637;42.020;23.992;2023-02-22T01:36:16;39.90;;;18.20;;
3249;SDS011;1637;42.020;23.992;2023-02-22T01:38:44;50.20;;;19.57;;
3249;SDS011;1637;42.020;23.992;2023-02-22T01:41:11;38.90;;;17.33;;
3249;SDS011;1637;42.020;23.992;2023-02-22T01:43:42;35.40;;;16.47;;
3249;SDS011;1637;42.020;23.992;2023-02-22T01:46:18;32.07;;;16.47;;
3249;SDS011;1637;42.020;23.992;2023-02-22T01:48:47;43.63;;;19.90;;
3249;SDS011;1637;42.020;23.992;2023-02-22T01:51:17;47.93;;;20.57;;
3249;SDS011;1637;42.020;23.992;2023-02-22T01:53:49;43.33;;;19.70;;
3249;SDS011;1637;42.020;23.992;2023-02-22T01:56:20;40.23;;;18.10;;
3249;SDS011;1637;42.020;23.992;2023-02-22T01:58:49;44.40;;;18.90;;
3249;SDS011;1637;42.020;23.992;2023-02-22T02:01:22;49.90;;;19.80;;
3249;SDS011;1637;42.020;23.992;2023-02-22T02:03:51;42.50;;;18.40;;
3249;SDS011;1637;42.020;23.992;2023-02-22T02:06:22;33.77;;;15.27;;
3249;SDS011;1637;42.020;23.992;2023-02-22T02:08:54;47.67;;;18.03;;
3249;SDS011;1637;42.020;23.992;2023-02-22T02:11:26;38.23;;;17.27;;
3249;SDS011;1637;42.020;23.992;2023-02-22T02:13:54;36.97;;;16.73;;
3249;SDS011;1637;42.020;23.992;2023-02-22T02:16:23;36.80;;;18.43;;
3249;SDS011;1637;42.020;23.992;2023-02-22T02:18:53;32.63;;;16.53;;
3249;SDS011;1637;42.020;23.992;2023-02-22T02:24:58;32.70;;;14.77;;
3249;SDS011;1637;42.020;23.992;2023-02-22T02:27:41;32.23;;;14.80;;
3249;SDS011;1637;42.020;23.992;2023-02-22T02:30:42;40.23;;;19.80;;
3249;SDS011;1637;42.020;23.992;2023-02-22T02:33:31;46.53;;;19.37;;
3249;SDS011;1637;42.020;23.992;2023-02-22T02:36:01;46.67;;;19.10;;
3249;SDS011;1637;42.020;23.992;2023-02-22T02:38:35;43.17;;;16.53;;
3249;SDS011;1637;42.020;23.992;2023-02-22T02:41:09;37.43;;;16.83;;
3249;SDS011;1637;42.020;23.992;2023-02-22T02:43:41;32.63;;;13.37;;
3249;SDS011;1637;42.020;23.992;2023-02-22T02:46:13;38.60;;;15.97;;
3249;SDS011;1637;42.020;23.992;2023-02-22T02:48:46;58.77;;;28.50;;
3249;SDS011;1637;42.020;23.992;2023-02-22T02:51:19;53.83;;;23.37;;
3249;SDS011;1637;42.020;23.992;2023-02-22T02:53:47;51.87;;;20.10;;
3249;SDS011;1637;42.020;23.992;2023-02-22T02:56:16;39.37;;;18.53;;
3249;SDS011;1637;42.020;23.992;2023-02-22T02:58:45;43.30;;;17.63;;
3249;SDS011;1637;42.020;23.992;2023-02-22T03:01:16;44.47;;;20.80;;
3249;SDS011;1637;42.020;23.992;2023-02-22T03:04:01;22.70;;;9.53;;
3249;SDS011;1637;42.020;23.992;2023-02-22T03:06:43;32.63;;;14.17;;
3249;SDS011;1637;42.020;23.992;2023-02-22T03:09:24;26.53;;;12.50;;
3249;SDS011;1637;42.020;23.992;2023-02-22T03:12:03;22.80;;;11.00;;
3249;SDS011;1637;42.020;23.992;2023-02-22T03:14:39;20.47;;;10.57;;
3249;SDS011;1637;42.020;23.992;2023-02-22T03:17:13;28.50;;;12.93;;
3249;SDS011;1637;42.020;23.992;2023-02-22T03:19:48;30.20;;;13.80;;
3249;SDS011;1637;42.020;23.992;2023-02-22T03:22:17;32.10;;;12.87;;
3249;SDS011;1637;42.020;23.992;2023-02-22T03:24:49;25.77;;;12.83;;
3249;SDS011;1637;42.020;23.992;2023-02-22T03:27:24;27.50;;;11.30;;
3249;SDS011;1637;42.020;23.992;2023-02-22T03:29:54;31.40;;;11.57;;
3249;SDS011;1637;42.020;23.992;2023-02-22T03:32:26;21.97;;;9.57;;
3249;SDS011;1637;42.020;23.992;2023-02-22T03:35:02;58.73;;;21.90;;
3249;SDS011;1637;42.020;23.992;2023-02-22T03:37:32;51.80;;;20.40;;
3249;SDS011;1637;42.020;23.992;2023-02-22T03:40:03;20.27;;;11.30;;
3249;SDS011;1637;42.020;23.992;2023-02-22T03:42:38;25.33;;;11.97;;
3249;SDS011;1637;42.020;23.992;2023-02-22T03:45:08;22.63;;;10.30;;
3249;SDS011;1637;42.020;23.992;2023-02-22T03:47:40;24.37;;;11.03;;
3249;SDS011;1637;42.020;23.992;2023-02-22T03:50:13;42.27;;;18.50;;
3249;SDS011;1637;42.020;23.992;2023-02-22T03:52:43;32.97;;;15.20;;
3249;SDS011;1637;42.020;23.992;2023-02-22T03:55:12;41.30;;;15.70;;
3249;SDS011;1637;42.020;23.992;2023-02-22T03:57:42;45.23;;;17.97;;
3249;SDS011;1637;42.020;23.992;2023-02-22T04:00:14;44.97;;;19.97;;
3249;SDS011;1637;42.020;23.992;2023-02-22T04:02:43;48.73;;;19.20;;
3249;SDS011;1637;42.020;23.992;2023-02-22T04:05:10;47.27;;;19.27;;
3249;SDS011;1637;42.020;23.992;2023-02-22T04:07:39;39.93;;;16.00;;
3249;SDS011;1637;42.020;23.992;2023-02-22T04:10:06;35.50;;;14.90;;
3249;SDS011;1637;42.020;23.992;2023-02-22T04:12:34;34.33;;;13.37;;
3249;SDS011;1637;42.020;23.992;2023-02-22T04:15:01;41.13;;;17.47;;
3249;SDS011;1637;42.020;23.992;2023-02-22T04:17:28;75.80;;;36.30;;
3249;SDS011;1637;42.020;23.992;2023-02-22T04:19:55;69.93;;;33.17;;
3249;SDS011;1637;42.020;23.992;2023-02-22T04:22:22;34.67;;;13.67;;
3249;SDS011;1637;42.020;23.992;2023-02-22T04:24:50;48.43;;;16.90;;
3249;SDS011;1637;42.020;23.992;2023-02-22T04:27:17;40.83;;;17.13;;
3249;SDS011;1637;42.020;23.992;2023-02-22T04:29:44;49.63;;;25.73;;
3249;SDS011;1637;42.020;23.992;2023-02-22T04:32:11;38.33;;;16.90;;
3249;SDS011;1637;42.020;23.992;2023-02-22T04:34:38;83.00;;;28.37;;
3249;SDS011;1637;42.020;23.992;2023-02-22T04:37:05;46.33;;;20.33;;
3249;SDS011;1637;42.020;23.992;2023-02-22T04:39:32;45.70;;;19.43;;
3249;SDS011;1637;42.020;23.992;2023-02-22T04:42:00;49.47;;;20.53;;
3249;SDS011;1637;42.020;23.992;2023-02-22T04:44:27;38.30;;;18.83;;
3249;SDS011;1637;42.020;23.992;2023-02-22T04:46:54;59.17;;;23.00;;
3249;SDS011;1637;42.020;23.992;2023-02-22T04:49:21;30.10;;;14.10;;
3249;SDS011;1637;42.020;23.992;2023-02-22T04:51:48;33.40;;;12.80;;
3249;SDS011;1637;42.020;23.992;2023-02-22T04:54:15;75.60;;;34.37;;
3249;SDS011;1637;42.020;23.992;2023-02-22T04:56:42;59.40;;;26.30;;
3249;SDS011;1637;42.020;23.992;2023-02-22T04:59:11;52.57;;;23.07;;
3249;SDS011;1637;42.020;23.992;2023-02-22T05:01:38;84.50;;;38.97;;
3249;SDS011;1637;42.020;23.992;2023-02-22T05:04:05;88.37;;;42.53;;
3249;SDS011;1637;42.020;23.992;2023-02-22T05:06:33;50.53;;;23.83;;
3249;SDS011;1637;42.020;23.992;2023-02-22T05:08:59;43.23;;;19.27;;
3249;SDS011;1637;42.020;23.992;2023-02-22T05:11:26;29.97;;;16.23;;
3249;SDS011;1637;42.020;23.992;2023-02-22T05:13:53;25.40;;;13.93;;
3249;SDS011;1637;42.020;23.992;2023-02-22T05:16:21;34.73;;;16.73;;
3249;SDS011;1637;42.020;23.992;2023-02-22T05:18:48;41.43;;;21.20;;
3249;SDS011;1637;42.020;23.992;2023-02-22T05:21:15;51.70;;;24.50;;
3249;SDS011;1637;42.020;23.992;2023-02-22T05:23:42;47.70;;;16.23;;
3249;SDS011;1637;42.020;23.992;2023-02-22T05:26:09;33.53;;;13.13;;
3249;SDS011;1637;42.020;23.992;2023-02-22T05:28:36;19.80;;;11.73;;
3249;SDS011;1637;42.020;23.992;2023-02-22T05:31:03;21.20;;;11.33;;
3249;SDS011;1637;42.020;23.992;2023-02-22T05:33:32;20.03;;;9.27;;
3249;SDS011;1637;42.020;23.992;2023-02-22T05:35:59;15.20;;;7.77;;
3249;SDS011;1637;42.020;23.992;2023-02-22T05:38:27;23.73;;;13.13;;
3249;SDS011;1637;42.020;23.992;2023-02-22T05:40:54;20.83;;;11.50;;
3249;SDS011;1637;42.020;23.992;2023-02-22T05:43:21;30.13;;;10.20;;
3249;SDS011;1637;42.020;23.992;2023-02-22T05:45:48;33.50;;;12.70;;
3249;SDS011;1637;42.020;23.992;2023-02-22T05:48:14;30.53;;;11.80;;
3249;SDS011;1637;42.020;23.992;2023-02-22T05:50:42;46.70;;;24.23;;
3249;SDS011;1637;42.020;23.992;2023-02-22T05:53:09;40.03;;;17.50;;
3249;SDS011;1637;42.020;23.992;2023-02-22T05:55:36;59.23;;;32.10;;
3249;SDS011;1637;42.020;23.992;2023-02-22T05:58:04;117.53;;;52.10;;
3249;SDS011;1637;42.020;23.992;2023-02-22T06:00:31;89.57;;;53.20;;
3249;SDS011;1637;42.020;23.992;2023-02-22T06:02:58;72.40;;;28.43;;
3249;SDS011;1637;42.020;23.992;2023-02-22T06:05:27;57.60;;;24.93;;
3249;SDS011;1637;42.020;23.992;2023-02-22T06:07:56;79.27;;;33.60;;
3249;SDS011;1637;42.020;23.992;2023-02-22T06:10:24;62.50;;;27.17;;
3249;SDS011;1637;42.020;23.992;2023-02-22T06:12:51;53.53;;;23.03;;
3249;SDS011;1637;42.020;23.992;2023-02-22T06:15:19;90.03;;;43.33;;
3249;SDS011;1637;42.020;23.992;2023-02-22T06:17:47;87.43;;;37.80;;
3249;SDS011;1637;42.020;23.992;2023-02-22T06:20:14;83.17;;;31.40;;
3249;SDS011;1637;42.020;23.992;2023-02-22T06:22:45;84.20;;;36.67;;
3249;SDS011;1637;42.020;23.992;2023-02-22T06:25:14;79.57;;;30.23;;
3249;SDS011;1637;42.020;23.992;2023-02-22T06:27:43;64.50;;;34.17;;
3249;SDS011;1637;42.020;23.992;2023-02-22T06:30:11;73.37;;;33.00;;
3249;SDS011;1637;42.020;23.992;2023-02-22T06:32:39;127.73;;;46.77;;
3249;SDS011;1637;42.020;23.992;2023-02-22T06:35:06;85.40;;;35.03;;
3249;SDS011;1637;42.020;23.992;2023-02-22T06:37:33;54.47;;;24.60;;
3249;SDS011;1637;42.020;23.992;2023-02-22T06:40:00;44.50;;;22.13;;
3249;SDS011;1637;42.020;23.992;2023-02-22T06:42:29;133.83;;;42.13;;
3249;SDS011;1637;42.020;23.992;2023-02-22T06:44:56;113.50;;;47.67;;
3249;SDS011;1637;42.020;23.992;2023-02-22T06:47:22;88.10;;;45.30;;
3249;SDS011;1637;42.020;23.992;2023-02-22T06:49:52;84.90;;;42.23;;
3249;SDS011;1637;42.020;23.992;2023-02-22T06:52:19;93.90;;;41.30;;
3249;SDS011;1637;42.020;23.992;2023-02-22T06:54:47;80.53;;;34.70;;
3249;SDS011;1637;42.020;23.992;2023-02-22T06:57:14;58.10;;;27.77;;
3249;SDS011;1637;42.020;23.992;2023-02-22T06:59:42;69.80;;;35.20;;
3249;SDS011;1637;42.020;23.992;2023-02-22T07:02:09;62.00;;;27.40;;
3249;SDS011;1637;42.020;23.992;2023-02-22T07:04:36;56.73;;;23.63;;
3249;SDS011;1637;42.020;23.992;2023-02-22T07:07:03;51.13;;;34.43;;
3249;SDS011;1637;42.020;23.992;2023-02-22T07:09:31;46.13;;;21.97;;
3249;SDS011;1637;42.020;23.992;2023-02-22T07:11:58;45.20;;;21.00;;
3249;SDS011;1637;42.020;23.992;2023-02-22T07:14:24;33.17;;;20.20;;
3249;SDS011;1637;42.020;23.992;2023-02-22T07:16:53;35.37;;;17.80;;
3249;SDS011;1637;42.020;23.992;2023-02-22T07:19:19;50.50;;;23.07;;
3249;SDS011;1637;42.020;23.992;2023-02-22T07:21:46;45.20;;;24.70;;
3249;SDS011;1637;42.020;23.992;2023-02-22T07:24:15;36.73;;;19.60;;
3249;SDS011;1637;42.020;23.992;2023-02-22T07:26:41;69.00;;;39.53;;
3249;SDS011;1637;42.020;23.992;2023-02-22T07:29:08;62.23;;;41.23;;
3249;SDS011;1637;42.020;23.992;2023-02-22T07:31:36;28.40;;;15.30;;
3249;SDS011;1637;42.020;23.992;2023-02-22T07:34:05;34.87;;;18.03;;
3249;SDS011;1637;42.020;23.992;2023-02-22T07:36:32;25.83;;;14.17;;
3249;SDS011;1637;42.020;23.992;2023-02-22T07:38:58;22.53;;;11.87;;
3249;SDS011;1637;42.020;23.992;2023-02-22T07:41:25;27.70;;;13.60;;
3249;SDS011;1637;42.020;23.992;2023-02-22T07:43:52;17.37;;;12.40;;
3249;SDS011;1637;42.020;23.992;2023-02-22T07:46:19;34.37;;;22.30;;
3249;SDS011;1637;42.020;23.992;2023-02-22T07:48:45;17.53;;;10.60;;
3249;SDS011;1637;42.020;23.992;2023-02-22T07:51:15;22.17;;;13.60;;
3249;SDS011;1637;42.020;23.992;2023-02-22T07:53:44;41.00;;;15.37;;
3249;SDS011;1637;42.020;23.992;2023-02-22T07:56:11;24.30;;;12.70;;
3249;SDS011;1637;42.020;23.992;2023-02-22T07:58:39;54.90;;;18.00;;
3249;SDS011;1637;42.020;23.992;2023-02-22T08:01:06;23.43;;;11.70;;
3249;SDS011;1637;42.020;23.992;2023-02-22T08:03:33;41.70;;;17.07;;
3249;SDS011;1637;42.020;23.992;2023-02-22T08:06:02;46.53;;;22.43;;
3249;SDS011;1637;42.020;23.992;2023-02-22T08:08:31;17.43;;;12.60;;
3249;SDS011;1637;42.020;23.992;2023-02-22T08:10:59;21.10;;;14.60;;
3249;SDS011;1637;42.020;23.992;2023-02-22T08:13:25;17.03;;;10.13;;
3249;SDS011;1637;42.020;23.992;2023-02-22T08:15:52;28.03;;;16.17;;
3249;SDS011;1637;42.020;23.992;2023-02-22T08:18:21;32.90;;;16.70;;
3249;SDS011;1637;42.020;23.992;2023-02-22T08:20:49;28.63;;;15.50;;
3249;SDS011;1637;42.020;23.992;2023-02-22T08:23:17;42.47;;;22.33;;
3249;SDS011;1637;42.020;23.992;2023-02-22T08:25:46;52.80;;;27.77;;
3249;SDS011;1637;42.020;23.992;2023-02-22T08:28:14;48.93;;;21.33;;
3249;SDS011;1637;42.020;23.992;2023-02-22T08:30:44;50.73;;;22.70;;
3249;SDS011;1637;42.020;23.992;2023-02-22T08:33:11;75.53;;;23.00;;
3249;SDS011;1637;42.020;23.992;2023-02-22T08:35:43;28.43;;;17.37;;
3249;SDS011;1637;42.020;23.992;2023-02-22T08:38:14;45.40;;;17.70;;
3249;SDS011;1637;42.020;23.992;2023-02-22T08:40:43;33.53;;;17.83;;
3249;SDS011;1637;42.020;23.992;2023-02-22T08:43:11;34.70;;;19.37;;
3249;SDS011;1637;42.020;23.992;2023-02-22T08:45:38;17.80;;;9.60;;
3249;SDS011;1637;42.020;23.992;2023-02-22T08:48:05;27.47;;;11.90;;
3249;SDS011;1637;42.020;23.992;2023-02-22T08:50:32;16.80;;;8.97;;
3249;SDS011;1637;42.020;23.992;2023-02-22T08:53:00;23.40;;;14.23;;
3249;SDS011;1637;42.020;23.992;2023-02-22T08:55:29;29.80;;;20.07;;
3249;SDS011;1637;42.020;23.992;2023-02-22T08:57:58;14.17;;;9.47;;
3249;SDS011;1637;42.020;23.992;2023-02-22T09:00:28;12.73;;;8.40;;
3249;SDS011;1637;42.020;23.992;2023-02-22T09:02:57;13.07;;;8.63;;
3249;SDS011;1637;42.020;23.992;2023-02-22T09:05:25;19.00;;;7.97;;
3249;SDS011;1637;42.020;23.992;2023-02-22T09:07:52;16.50;;;8.70;;
3249;SDS011;1637;42.020;23.992;2023-02-22T09:10:20;19.50;;;10.97;;
3249;SDS011;1637;42.020;23.992;2023-02-22T09:12:49;32.47;;;13.00;;
3249;SDS011;1637;42.020;23.992;2023-02-22T09:15:16;20.70;;;13.70;;
3249;SDS011;1637;42.020;23.992;2023-02-22T09:17:45;28.87;;;14.63;;
3249;SDS011;1637;42.020;23.992;2023-02-22T09:20:12;24.73;;;14.80;;
3249;SDS011;1637;42.020;23.992;2023-02-22T09:22:39;32.23;;;14.90;;
3249;SDS011;1637;42.020;23.992;2023-02-22T09:25:06;36.17;;;17.00;;
3249;SDS011;1637;42.020;23.992;2023-02-22T09:27:33;19.63;;;12.27;;
3249;SDS011;1637;42.020;23.992;2023-02-22T09:30:00;22.33;;;11.10;;
3249;SDS011;1637;42.020;23.992;2023-02-22T09:32:27;14.57;;;9.40;;
3249;SDS011;1637;42.020;23.992;2023-02-22T09:34:56;21.57;;;10.47;;
3249;SDS011;1637;42.020;23.992;2023-02-22T09:37:23;26.07;;;11.60;;
3249;SDS011;1637;42.020;23.992;2023-02-22T09:39:49;32.50;;;12.83;;
3249;SDS011;1637;42.020;23.992;2023-02-22T09:42:19;28.80;;;13.73;;
3249;SDS011;1637;42.020;23.992;2023-02-22T09:44:55;27.77;;;11.87;;
3249;SDS011;1637;42.020;23.992;2023-02-22T09:47:37;30.83;;;10.67;;
3249;SDS011;1637;42.020;23.992;2023-02-22T09:50:12;19.97;;;8.90;;
3249;SDS011;1637;42.020;23.992;2023-02-22T09:52:44;22.10;;;10.80;;
3249;SDS011;1637;42.020;23.992;2023-02-22T09:55:21;13.60;;;8.70;;
3249;SDS011;1637;42.020;23.992;2023-02-22T09:57:58;19.43;;;11.37;;
3249;SDS011;1637;42.020;23.992;2023-02-22T10:00:29;20.97;;;9.30;;
3249;SDS011;1637;42.020;23.992;2023-02-22T10:03:02;16.77;;;9.47;;
3249;SDS011;1637;42.020;23.992;2023-02-22T10:05:46;8.20;;;3.60;;
3249;SDS011;1637;42.020;23.992;2023-02-22T10:08:18;1.60;;;1.30;;
3249;SDS011;1637;42.020;23.992;2023-02-22T10:10:46;1.30;;;1.20;;
3249;SDS011;1637;42.020;23.992;2023-02-22T10:13:21;3.70;;;1.50;;
3249;SDS011;1637;42.020;23.992;2023-02-22T10:15:54;27.27;;;17.57;;
3249;SDS011;1637;42.020;23.992;2023-02-22T10:18:32;3.13;;;2.70;;
3249;SDS011;1637;42.020;23.992;2023-02-22T10:21:22;2.70;;;1.50;;
3249;SDS011;1637;42.020;23.992;2023-02-22T10:24:12;2.43;;;1.70;;
3249;SDS011;1637;42.020;23.992;2023-02-22T10:26:51;16.10;;;10.33;;
3249;SDS011;1637;42.020;23.992;2023-02-22T10:29:21;6.67;;;4.57;;
3249;SDS011;1637;42.020;23.992;2023-02-22T10:31:57;3.77;;;2.87;;
3249;SDS011;1637;42.020;23.992;2023-02-22T10:34:26;2.90;;;2.43;;
3249;SDS011;1637;42.020;23.992;2023-02-22T10:37:07;16.63;;;3.40;;
3249;SDS011;1637;42.020;23.992;2023-02-22T10:39:50;3.27;;;2.20;;
3249;SDS011;1637;42.020;23.992;2023-02-22T10:42:21;3.90;;;1.87;;
3249;SDS011;1637;42.020;23.992;2023-02-22T10:44:50;5.93;;;1.80;;
3249;SDS011;1637;42.020;23.992;2023-02-22T10:47:17;1.80;;;1.40;;
3249;SDS011;1637;42.020;23.992;2023-02-22T10:49:46;12.43;;;7.53;;
3249;SDS011;1637;42.020;23.992;2023-02-22T10:52:18;2.50;;;2.00;;
3249;SDS011;1637;42.020;23.992;2023-02-22T10:54:50;7.20;;;3.33;;
3249;SDS011;1637;42.020;23.992;2023-02-22T10:57:20;2.77;;;2.20;;
3249;SDS011;1637;42.020;23.992;2023-02-22T10:59:49;5.73;;;2.60;;
3249;SDS011;1637;42.020;23.992;2023-02-22T11:02:18;10.50;;;2.63;;
3249;SDS011;1637;42.020;23.992;2023-02-22T11:04:47;5.37;;;2.53;;
3249;SDS011;1637;42.020;23.992;2023-02-22T11:07:21;2.87;;;2.00;;
3249;SDS011;1637;42.020;23.992;2023-02-22T11:09:52;13.13;;;3.47;;
3249;SDS011;1637;42.020;23.992;2023-02-22T11:12:21;11.93;;;4.70;;
3249;SDS011;1637;42.020;23.992;2023-02-22T11:14:53;4.73;;;2.60;;
3249;SDS011;1637;42.020;23.992;2023-02-22T11:17:26;2.77;;;1.60;;
3249;SDS011;1637;42.020;23.992;2023-02-22T11:19:56;10.10;;;2.00;;
3249;SDS011;1637;42.020;23.992;2023-02-22T11:22:25;2.83;;;1.33;;
3249;SDS011;1637;42.020;23.992;2023-02-22T11:24:56;11.30;;;4.67;;
3249;SDS011;1637;42.020;23.992;2023-02-22T11:27:27;5.97;;;3.10;;
3249;SDS011;1637;42.020;23.992;2023-02-22T11:30:05;3.30;;;1.90;;
3249;SDS011;1637;42.020;23.992;2023-02-22T11:32:42;2.20;;;1.87;;
3249;SDS011;1637;42.020;23.992;2023-02-22T11:35:18;4.20;;;2.10;;
3249;SDS011;1637;42.020;23.992;2023-02-22T11:38:09;2.30;;;2.00;;
3249;SDS011;1637;42.020;23.992;2023-02-22T11:40:41;11.87;;;4.73;;
3249;SDS011;1637;42.020;23.992;2023-02-22T11:43:08;11.00;;;3.60;;
3249;SDS011;1637;42.020;23.992;2023-02-22T11:45:54;3.93;;;1.57;;
3249;SDS011;1637;42.020;23.992;2023-02-22T11:48:27;6.83;;;3.00;;
3249;SDS011;1637;42.020;23.992;2023-02-22T11:50:58;5.97;;;2.90;;
3249;SDS011;1637;42.020;23.992;2023-02-22T11:53:45;4.70;;;2.20;;
3249;SDS011;1637;42.020;23.992;2023-02-22T11:56:44;2.83;;;1.27;;
3249;SDS011;1637;42.020;23.992;2023-02-22T11:59:17;6.03;;;1.40;;
3249;SDS011;1637;42.020;23.992;2023-02-22T12:02:00;31.50;;;3.30;;
3249;SDS011;1637;42.020;23.992;2023-02-22T12:04:51;5.27;;;2.40;;
3249;SDS011;1637;42.020;23.992;2023-02-22T12:07:35;9.60;;;3.10;;
3249;SDS011;1637;42.020;23.992;2023-02-22T12:10:22;6.83;;;2.53;;
3249;SDS011;1637;42.020;23.992;2023-02-22T12:13:02;6.53;;;2.30;;
3249;SDS011;1637;42.020;23.992;2023-02-22T12:15:42;7.53;;;3.97;;
3249;SDS011;1637;42.020;23.992;2023-02-22T12:18:17;5.27;;;3.93;;
3249;SDS011;1637;42.020;23.992;2023-02-22T12:20:52;1.80;;;1.10;;
3249;SDS011;1637;42.020;23.992;2023-02-22T12:23:23;10.90;;;1.83;;
3249;SDS011;1637;42.020;23.992;2023-02-22T12:25:58;11.83;;;9.10;;
3249;SDS011;1637;42.020;23.992;2023-02-22T12:28:31;2.33;;;2.00;;
3249;SDS011;1637;42.020;23.992;2023-02-22T12:31:07;12.03;;;5.67;;
3249;SDS011;1637;42.020;23.992;2023-02-22T12:33:43;10.30;;;7.50;;
3249;SDS011;1637;42.020;23.992;2023-02-22T12:36:16;6.70;;;2.50;;
3249;SDS011;1637;42.020;23.992;2023-02-22T12:38:47;4.27;;;2.47;;
3249;SDS011;1637;42.020;23.992;2023-02-22T12:41:21;16.47;;;7.53;;
3249;SDS011;1637;42.020;23.992;2023-02-22T12:43:55;6.83;;;2.23;;
3249;SDS011;1637;42.020;23.992;2023-02-22T12:46:29;10.23;;;2.23;;
3249;SDS011;1637;42.020;23.992;2023-02-22T12:48:59;9.10;;;2.50;;
3249;SDS011;1637;42.020;23.992;2023-02-22T12:51:34;2.00;;;1.77;;
3249;SDS011;1637;42.020;23.992;2023-02-22T12:54:09;4.70;;;2.00;;
3249;SDS011;1637;42.020;23.992;2023-02-22T12:56:44;2.07;;;1.27;;
3249;SDS011;1637;42.020;23.992;2023-02-22T12:59:19;3.30;;;1.97;;
3249;SDS011;1637;42.020;23.992;2023-02-22T13:01:52;13.30;;;2.63;;
3249;SDS011;1637;42.020;23.992;2023-02-22T13:04:22;16.30;;;2.60;;
3249;SDS011;1637;42.020;23.992;2023-02-22T13:06:52;4.80;;;2.40;;
3249;SDS011;1637;42.020;23.992;2023-02-22T13:09:34;34.30;;;3.63;;
3249;SDS011;1637;42.020;23.992;2023-02-22T13:12:17;1.47;;;1.33;;
3249;SDS011;1637;42.020;23.992;2023-02-22T13:14:51;7.63;;;1.17;;
3249;SDS011;1637;42.020;23.992;2023-02-22T13:17:28;27.43;;;14.00;;
3249;SDS011;1637;42.020;23.992;2023-02-22T13:20:03;15.93;;;8.90;;
3249;SDS011;1637;42.020;23.992;2023-02-22T13:22:40;8.23;;;2.37;;
3249;SDS011;1637;42.020;23.992;2023-02-22T13:25:11;14.57;;;7.67;;
3249;SDS011;1637;42.020;23.992;2023-02-22T13:27:44;10.00;;;6.20;;
3249;SDS011;1637;42.020;23.992;2023-02-22T13:30:19;2.67;;;1.57;;
3249;SDS011;1637;42.020;23.992;2023-02-22T13:32:59;14.17;;;8.60;;
3249;SDS011;1637;42.020;23.992;2023-02-22T13:35:54;10.60;;;4.57;;
3249;SDS011;1637;42.020;23.992;2023-02-22T13:38:47;6.60;;;3.50;;
3249;SDS011;1637;42.020;23.992;2023-02-22T13:41:36;2.03;;;1.40;;
3249;SDS011;1637;42.020;23.992;2023-02-22T13:50:28;2.13;;;1.83;;
3249;SDS011;1637;42.020;23.992;2023-02-22T13:53:16;2.20;;;1.67;;
3249;SDS011;1637;42.020;23.992;2023-02-22T13:55:50;10.37;;;5.67;;
3249;SDS011;1637;42.020;23.992;2023-02-22T13:58:21;2.90;;;1.40;;
3249;SDS011;1637;42.020;23.992;2023-02-22T14:00:48;1.87;;;1.57;;
3249;SDS011;1637;42.020;23.992;2023-02-22T14:03:32;4.43;;;1.83;;
3249;SDS011;1637;42.020;23.992;2023-02-22T14:06:04;3.53;;;2.40;;
3249;SDS011;1637;42.020;23.992;2023-02-22T14:08:39;5.87;;;1.50;;
3249;SDS011;1637;42.020;23.992;2023-02-22T14:14:22;11.43;;;6.93;;
3249;SDS011;1637;42.020;23.992;2023-02-22T14:20:16;1.80;;;1.47;;
3249;SDS011;1637;42.020;23.992;2023-02-22T14:22:46;2.23;;;1.80;;
3249;SDS011;1637;42.020;23.992;2023-02-22T14:25:33;13.43;;;3.30;;
3249;SDS011;1637;42.020;23.992;2023-02-22T14:28:03;10.10;;;3.93;;
3249;SDS011;1637;42.020;23.992;2023-02-22T14:30:33;13.90;;;8.47;;
3249;SDS011;1637;42.020;23.992;2023-02-22T14:33:01;9.33;;;5.60;;
3249;SDS011;1637;42.020;23.992;2023-02-22T14:35:31;13.10;;;6.73;;
3249;SDS011;1637;42.020;23.992;2023-02-22T14:38:05;7.10;;;4.70;;
3249;SDS011;1637;42.020;23.992;2023-02-22T14:40:42;12.23;;;4.17;;
3249;SDS011;1637;42.020;23.992;2023-02-22T14:43:14;5.33;;;2.00;;
3249;SDS011;1637;42.020;23.992;2023-02-22T14:45:46;5.77;;;1.80;;
3249;SDS011;1637;42.020;23.992;2023-02-22T14:48:19;8.23;;;2.53;;
3249;SDS011;1637;42.020;23.992;2023-02-22T14:50:55;2.97;;;2.40;;
3249;SDS011;1637;42.020;23.992;2023-02-22T14:53:25;5.73;;;1.60;;
3249;SDS011;1637;42.020;23.992;2023-02-22T14:55:59;13.37;;;5.10;;
3249;SDS011;1637;42.020;23.992;2023-02-22T14:58:32;10.20;;;3.30;;
3249;SDS011;1637;42.020;23.992;2023-02-22T15:01:24;4.23;;;2.10;;
3249;SDS011;1637;42.020;23.992;2023-02-22T15:03:57;15.00;;;9.67;;
3249;SDS011;1637;42.020;23.992;2023-02-22T15:06:27;16.93;;;5.63;;
3249;SDS011;1637;42.020;23.992;2023-02-22T15:09:05;16.33;;;3.50;;
3249;SDS011;1637;42.020;23.992;2023-02-22T15:11:34;6.70;;;2.63;;
3249;SDS011;1637;42.020;23.992;2023-02-22T15:14:01;6.07;;;2.93;;
3249;SDS011;1637;42.020;23.992;2023-02-22T15:16:28;9.80;;;4.17;;
3249;SDS011;1637;42.020;23.992;2023-02-22T15:18:58;17.03;;;8.93;;
3249;SDS011;1637;42.020;23.992;2023-02-22T15:21:33;18.03;;;11.50;;